Time;durP1;ratioP1;P1;durP2;ratioP2;P2;SDS_P1;SDS_P2;PMS_P1;PMS_P2;Temp;Humidity;BMP_temperature;BMP_pressure;BME280_temperature;BME280_humidity;BME280_pressure;Samples;Min_cycle;Max_cycle;Signal;HPM_P1;HPM_P2
2022/03/05 00:02:14;;;;;;;8.27;6.03;;;1.40;84.80;;;;;;6124145;23;92482;-70
2022/03/05 00:04:42;;;;;;;9.10;6.43;;;1.40;85.00;;;;;;6124268;23;92590;-74
2022/03/05 00:07:10;;;;;;;10.68;5.97;;;1.40;84.80;;;;;;6122253;23;98232;-74
2022/03/05 00:09:37;;;;;;;10.80;6.60;;;1.30;84.70;;;;;;6123252;23;115568;-74
2022/03/05 00:12:04;;;;;;;9.73;6.45;;;1.30;84.70;;;;;;6124138;23;92442;-74
2022/03/05 00:14:31;;;;;;;9.90;6.28;;;1.30;84.80;;;;;;6125795;22;92361;-74
2022/03/05 00:16:58;;;;;;;10.88;6.20;;;1.20;84.90;;;;;;6123830;23;93231;-74
2022/03/05 00:19:24;;;;;;;9.65;6.40;;;1.20;84.90;;;;;;6124210;23;92782;-74
2022/03/05 00:21:53;;;;;;;8.52;6.32;;;1.20;85.00;;;;;;6123904;23;92341;-74
2022/03/05 00:24:20;;;;;;;11.95;6.90;;;1.20;84.90;;;;;;6124670;23;91712;-74
2022/03/05 00:26:47;;;;;;;8.77;6.68;;;1.20;84.90;;;;;;6125394;23;93205;-74
2022/03/05 00:29:14;;;;;;;7.90;6.15;;;1.20;85.00;;;;;;6099225;23;93949;-74
2022/03/05 00:31:43;;;;;;;12.52;6.97;;;1.20;84.90;;;;;;6098136;23;95176;-74
2022/03/05 00:34:10;;;;;;;11.50;6.88;;;1.10;85.40;;;;;;6123911;23;92467;-74
2022/03/05 00:36:40;;;;;;;10.90;7.10;;;1.10;84.90;;;;;;6125644;22;93082;-74
2022/03/05 00:39:07;;;;;;;10.95;7.50;;;1.10;84.90;;;;;;6123932;23;93015;-74
2022/03/05 00:41:34;;;;;;;12.45;7.50;;;1.10;85.00;;;;;;6099404;23;92546;-74
2022/03/05 00:44:01;;;;;;;10.45;7.40;;;1.10;85.00;;;;;;6099083;23;92442;-74
2022/03/05 00:46:28;;;;;;;10.02;7.00;;;1.10;85.10;;;;;;6123815;23;95613;-70
2022/03/05 00:48:55;;;;;;;10.52;7.47;;;1.10;85.10;;;;;;6125153;22;92697;-70
2022/03/05 00:51:22;;;;;;;11.70;7.10;;;1.10;85.10;;;;;;6124025;23;92390;-74
2022/03/05 00:53:49;;;;;;;11.00;7.22;;;1.00;85.20;;;;;;6125587;22;92427;-74
2022/03/05 00:56:16;;;;;;;12.85;7.88;;;1.00;85.10;;;;;;6122559;23;94961;-74
2022/03/05 00:58:43;;;;;;;11.68;7.60;;;1.00;85.20;;;;;;6125449;22;93962;-74
2022/03/05 01:01:10;;;;;;;13.15;7.75;;;1.00;85.30;;;;;;6124088;23;92389;-70
2022/03/05 01:03:37;;;;;;;11.07;6.90;;;1.00;85.60;;;;;;6125578;23;92420;-70
2022/03/05 01:06:05;;;;;;;12.43;7.20;;;0.90;85.40;;;;;;6125199;22;92990;-70
2022/03/05 01:08:33;;;;;;;11.32;7.32;;;0.90;85.50;;;;;;6123778;23;92799;-70
2022/03/05 01:11:01;;;;;;;12.70;8.38;;;0.90;85.40;;;;;;6099651;23;92717;-70
2022/03/05 01:13:28;;;;;;;11.20;7.35;;;0.90;85.40;;;;;;6099893;23;92520;-70
2022/03/05 01:15:55;;;;;;;11.60;8.18;;;0.90;85.50;;;;;;6124959;22;93149;-70
2022/03/05 01:18:22;;;;;;;11.90;7.95;;;0.90;85.50;;;;;;6123547;23;95809;-70
2022/03/05 01:20:49;;;;;;;11.25;6.93;;;0.90;85.50;;;;;;6123940;22;94760;-70
2022/03/05 01:23:16;;;;;;;12.15;7.85;;;0.80;85.70;;;;;;6124063;23;92363;-69
2022/03/05 01:25:43;;;;;;;10.88;7.78;;;0.90;85.70;;;;;;6123607;23;94653;-70
2022/03/05 01:28:10;;;;;;;11.13;7.95;;;0.90;85.70;;;;;;6125004;22;92433;-70
2022/03/05 01:30:38;;;;;;;11.70;7.88;;;0.80;85.80;;;;;;6125598;23;92506;-68
2022/03/05 01:33:05;;;;;;;12.73;7.50;;;0.80;85.60;;;;;;6124815;22;98065;-68
2022/03/05 01:35:32;;;;;;;10.88;7.15;;;0.80;85.50;;;;;;6123582;23;95717;-69
2022/03/05 01:37:59;;;;;;;12.43;7.05;;;0.80;85.40;;;;;;6125472;22;92977;-68
2022/03/05 01:40:25;;;;;;;11.65;7.78;;;0.80;85.40;;;;;;6123555;23;92464;-72
2022/03/05 01:42:52;;;;;;;11.43;7.15;;;0.80;85.40;;;;;;6123329;23;92449;-72
2022/03/05 01:45:19;;;;;;;10.70;7.05;;;0.80;85.40;;;;;;6122153;23;98053;-69
2022/03/05 01:47:46;;;;;;;13.35;7.53;;;0.80;85.30;;;;;;6123320;23;98069;-68
2022/03/05 01:50:13;;;;;;;12.32;6.82;;;0.80;85.40;;;;;;6123405;23;92451;-68
2022/03/05 01:52:40;;;;;;;9.68;6.88;;;0.80;85.40;;;;;;6123778;23;92437;-68
2022/03/05 01:55:11;;;;;;;14.68;7.60;;;0.80;85.40;;;;;;6124638;22;93114;-68
2022/03/05 01:57:38;;;;;;;12.90;8.00;;;0.80;85.20;;;;;;6099871;23;94697;-68
2022/03/05 02:00:08;;;;;;;11.30;7.03;;;0.80;85.20;;;;;;6124411;23;102632;-68
2022/03/05 02:02:42;;;;;;;11.05;7.30;;;0.80;85.10;;;;;;6100891;23;91758;-72
2022/03/05 02:05:10;;;;;;;11.43;6.95;;;0.70;85.60;;;;;;6123746;23;92997;-72
2022/03/05 02:07:37;;;;;;;10.23;6.80;;;0.80;85.00;;;;;;6098588;23;95585;-68
2022/03/05 02:10:06;;;;;;;13.18;7.40;;;0.70;84.90;;;;;;6123712;22;94790;-68
2022/03/05 02:12:34;;;;;;;10.65;6.43;;;0.80;84.90;;;;;;6123286;23;92518;-72
2022/03/05 02:15:01;;;;;;;12.95;6.60;;;0.70;84.80;;;;;;6098076;23;95713;-68
2022/03/05 02:17:29;;;;;;;8.18;6.50;;;0.70;84.80;;;;;;6125300;23;92966;-68
2022/03/05 02:19:57;;;;;;;9.75;6.78;;;0.70;84.80;;;;;;6125289;22;92539;-68
2022/03/05 02:22:28;;;;;;;9.43;7.13;;;0.70;84.80;;;;;;6126372;22;92436;-72
2022/03/05 02:24:58;;;;;;;9.93;7.30;;;0.70;84.80;;;;;;6149623;22;93798;-72
2022/03/05 02:27:27;;;;;;;10.95;6.75;;;0.70;84.80;;;;;;6125135;23;95453;-72
2022/03/05 02:29:55;;;;;;;12.25;6.80;;;0.70;84.80;;;;;;6126698;23;92688;-72
2022/03/05 02:32:23;;;;;;;12.15;7.03;;;0.70;84.80;;;;;;6126806;23;92435;-72
2022/03/05 02:34:51;;;;;;;11.52;7.30;;;0.70;84.90;;;;;;6098426;23;98079;-72
2022/03/05 02:37:20;;;;;;;9.55;6.82;;;0.70;84.80;;;;;;6125811;22;95282;-72
2022/03/05 02:39:48;;;;;;;9.65;6.68;;;0.70;84.80;;;;;;6124677;23;92401;-72
2022/03/05 02:42:17;;;;;;;11.40;6.82;;;0.70;84.90;;;;;;6124348;23;92440;-72
2022/03/05 02:44:45;;;;;;;9.85;6.95;;;0.60;84.80;;;;;;6124930;23;93453;-72
2022/03/05 02:47:12;;;;;;;9.45;6.40;;;0.70;84.80;;;;;;6124555;23;92888;-72
2022/03/05 02:49:39;;;;;;;10.60;7.05;;;0.60;84.80;;;;;;6126267;22;92401;-72
2022/03/05 02:52:07;;;;;;;11.20;6.75;;;0.60;84.90;;;;;;6125110;23;91717;-68
2022/03/05 02:54:34;;;;;;;9.80;6.97;;;0.60;84.80;;;;;;6125988;22;93278;-72
2022/03/05 02:57:01;;;;;;;10.65;7.15;;;0.60;85.00;;;;;;6124248;23;92969;-72
2022/03/05 02:59:28;;;;;;;12.02;6.90;;;0.50;85.00;;;;;;6125029;22;94775;-72
2022/03/05 03:01:56;;;;;;;12.80;7.10;;;0.50;85.20;;;;;;6126376;23;92346;-72
2022/03/05 03:04:23;;;;;;;9.95;6.15;;;0.50;85.20;;;;;;6124354;23;93177;-72
2022/03/05 03:06:50;;;;;;;10.98;6.75;;;0.50;85.30;;;;;;6126302;22;92849;-72
2022/03/05 03:09:17;;;;;;;9.75;6.90;;;0.50;85.50;;;;;;6124582;23;92632;-72
2022/03/05 03:11:45;;;;;;;9.25;7.30;;;0.40;85.50;;;;;;6126310;22;92420;-72
2022/03/05 03:14:12;;;;;;;13.80;7.75;;;0.40;85.70;;;;;;6123885;23;103225;-72
2022/03/05 03:16:38;;;;;;;8.63;6.03;;;0.40;85.80;;;;;;6124589;23;95534;-68
2022/03/05 03:19:05;;;;;;;11.52;7.00;;;0.30;86.40;;;;;;6099880;23;92440;-67
2022/03/05 03:21:32;;;;;;;10.27;6.95;;;0.30;86.30;;;;;;6124310;23;92470;-68
2022/03/05 03:24:00;;;;;;;13.18;8.20;;;0.30;86.20;;;;;;6124230;22;95497;-68
2022/03/05 03:26:27;;;;;;;13.32;7.57;;;0.20;86.30;;;;;;6125554;22;95512;-72
2022/03/05 03:28:54;;;;;;;13.25;7.35;;;0.20;86.40;;;;;;6126247;22;92357;-72
2022/03/05 03:31:21;;;;;;;12.68;7.53;;;0.20;86.40;;;;;;6124369;23;92484;-72
2022/03/05 03:33:48;;;;;;;11.23;7.97;;;0.20;86.50;;;;;;6099433;23;95916;-72
2022/03/05 03:36:15;;;;;;;11.48;7.47;;;0.10;86.60;;;;;;6099497;23;93560;-68
2022/03/05 03:38:42;;;;;;;11.95;6.55;;;0.10;86.60;;;;;;6125651;23;97064;-68
2022/03/05 03:41:09;;;;;;;10.02;6.93;;;0.10;86.70;;;;;;6124331;23;91869;-68
2022/03/05 03:43:36;;;;;;;10.63;6.65;;;0.10;86.70;;;;;;6124282;23;93194;-68
2022/03/05 03:46:03;;;;;;;10.23;7.07;;;0.10;86.80;;;;;;6125691;22;92873;-68
2022/03/05 03:48:30;;;;;;;11.25;7.05;;;0.10;86.70;;;;;;6123853;22;94781;-71
2022/03/05 03:50:57;;;;;;;10.52;7.15;;;0.10;86.90;;;;;;6124555;23;92449;-68
2022/03/05 03:53:24;;;;;;;9.93;6.30;;;0.10;86.90;;;;;;6125587;22;93159;-68
2022/03/05 03:55:51;;;;;;;11.20;7.97;;;0.10;87.00;;;;;;6125559;22;92888;-68
2022/03/05 03:58:18;;;;;;;10.75;8.18;;;0.00;87.00;;;;;;6125677;22;92413;-68
2022/03/05 04:00:45;;;;;;;13.32;8.07;;;0.00;86.90;;;;;;6124110;23;92541;-71
2022/03/05 04:03:12;;;;;;;11.32;7.18;;;0.00;87.00;;;;;;6074544;23;96125;-72
2022/03/05 04:05:40;;;;;;;12.57;7.80;;;0.00;87.00;;;;;;6125643;23;92918;-72
2022/03/05 04:10:53;;;;;;;12.05;7.50;;;0.00;87.20;;;;;;6125806;22;92450;-68
2022/03/05 04:13:20;;;;;;;12.68;7.53;;;0.00;87.20;;;;;;6147129;22;95612;-68
2022/03/05 04:15:47;;;;;;;11.10;6.93;;;0.00;87.30;;;;;;6099189;23;98018;-72
2022/03/05 04:18:14;;;;;;;10.77;7.25;;;0.00;87.40;;;;;;6125754;22;92317;-72
2022/03/05 04:20:41;;;;;;;13.38;7.00;;;0.00;87.40;;;;;;6124205;23;92437;-72
2022/03/05 04:23:08;;;;;;;11.60;7.45;;;-0.10;87.30;;;;;;6125808;22;92877;-72
2022/03/05 04:25:35;;;;;;;11.90;7.50;;;-0.10;87.30;;;;;;6125623;23;92983;-72
2022/03/05 04:28:03;;;;;;;11.38;7.45;;;-0.10;87.30;;;;;;6125890;22;92331;-68
2022/03/05 04:30:30;;;;;;;11.93;7.40;;;-0.10;87.40;;;;;;6125894;22;91610;-68
2022/03/05 04:32:57;;;;;;;12.68;7.88;;;-0.10;87.50;;;;;;6123771;23;95860;-68
2022/03/05 04:35:24;;;;;;;13.68;7.90;;;-0.20;87.50;;;;;;6125164;23;92496;-68
2022/03/05 04:37:51;;;;;;;11.85;7.80;;;-0.20;87.50;;;;;;6122639;23;94812;-68
2022/03/05 04:40:19;;;;;;;10.95;7.55;;;-0.20;87.60;;;;;;6098988;23;92426;-68
2022/03/05 04:42:46;;;;;;;11.85;7.63;;;-0.20;87.80;;;;;;6124262;23;93102;-71
2022/03/05 04:45:14;;;;;;;12.13;7.88;;;-0.30;87.70;;;;;;6125185;22;92880;-71
2022/03/05 04:47:41;;;;;;;11.30;7.93;;;-0.30;87.80;;;;;;6124306;23;92468;-71
2022/03/05 04:50:09;;;;;;;11.27;7.00;;;-0.30;87.90;;;;;;6125602;22;92953;-72
2022/03/05 04:52:36;;;;;;;10.55;7.05;;;-0.30;88.00;;;;;;6125208;22;93271;-68
2022/03/05 04:55:05;;;;;;;12.95;6.93;;;-0.30;88.00;;;;;;6125749;23;92930;-68
2022/03/05 04:57:32;;;;;;;12.25;7.72;;;-0.30;88.00;;;;;;6125401;23;92280;-68
2022/03/05 04:59:59;;;;;;;9.32;7.10;;;-0.30;88.20;;;;;;6123900;23;92410;-68
2022/03/05 05:02:26;;;;;;;12.07;8.10;;;-0.40;88.70;;;;;;6122894;23;111128;-68
2022/03/05 05:04:53;;;;;;;10.93;7.65;;;-0.30;88.10;;;;;;6123822;23;95351;-68
2022/03/05 05:07:20;;;;;;;12.68;8.00;;;-0.40;88.20;;;;;;6125410;22;92447;-68
2022/03/05 05:09:47;;;;;;;11.95;7.55;;;-0.40;88.20;;;;;;6124091;23;92407;-68
2022/03/05 05:12:15;;;;;;;14.00;8.10;;;-0.40;88.30;;;;;;6098966;23;94174;-68
2022/03/05 05:14:42;;;;;;;11.82;7.65;;;-0.40;88.50;;;;;;6125063;22;93063;-68
2022/03/05 05:17:09;;;;;;;11.90;7.47;;;-0.40;88.50;;;;;;6123746;23;92422;-72
2022/03/05 05:19:36;;;;;;;12.23;7.72;;;-0.40;88.60;;;;;;6123952;23;91634;-68
2022/03/05 05:22:06;;;;;;;10.15;7.28;;;-0.40;88.70;;;;;;6099114;23;96784;-72
2022/03/05 05:24:35;;;;;;;10.57;7.43;;;-0.40;88.80;;;;;;6123622;23;93077;-72
2022/03/05 05:27:03;;;;;;;10.82;7.32;;;-0.40;88.70;;;;;;6124252;22;94656;-72
2022/03/05 05:29:30;;;;;;;11.35;7.53;;;-0.40;88.60;;;;;;6125283;23;92410;-68
2022/03/05 05:32:11;;;;;;;10.38;7.60;;;-0.40;88.50;;;;;;6125390;23;93155;-68
2022/03/05 05:34:39;;;;;;;13.63;8.07;;;-0.40;88.60;;;;;;6125052;22;92658;-68
2022/03/05 05:37:12;;;;;;;10.00;7.05;;;-0.40;88.80;;;;;;6123818;23;92422;-68
2022/03/05 05:39:41;;;;;;;13.27;8.27;;;-0.40;88.90;;;;;;6098934;23;92341;-68
2022/03/05 05:42:08;;;;;;;12.23;7.50;;;-0.40;88.80;;;;;;6123412;23;95629;-68
2022/03/05 05:44:35;;;;;;;12.35;7.22;;;-0.40;88.90;;;;;;6124046;23;92938;-68
2022/03/05 05:47:03;;;;;;;13.55;8.35;;;-0.50;88.90;;;;;;6125143;22;92326;-71
2022/03/05 05:49:30;;;;;;;12.43;7.30;;;-0.40;89.10;;;;;;6123067;23;92502;-71
2022/03/05 05:51:57;;;;;;;12.07;7.53;;;-0.40;89.10;;;;;;6121965;23;98383;-71
2022/03/05 05:54:24;;;;;;;13.48;7.75;;;-0.50;89.00;;;;;;6123066;23;97896;-71
2022/03/05 05:56:51;;;;;;;11.88;8.13;;;-0.50;89.10;;;;;;6124617;22;92388;-71
2022/03/05 05:59:17;;;;;;;12.55;7.82;;;-0.50;89.20;;;;;;6099104;23;92342;-71
2022/03/05 06:01:44;;;;;;;10.85;7.55;;;-0.50;89.40;;;;;;6123167;23;93142;-72
2022/03/05 06:04:12;;;;;;;13.23;8.18;;;-0.50;89.40;;;;;;6123533;23;92512;-72
2022/03/05 06:06:39;;;;;;;12.15;8.50;;;-0.50;89.50;;;;;;6124793;22;92389;-71
2022/03/05 06:09:06;;;;;;;11.32;8.10;;;-0.50;89.50;;;;;;6125879;22;91640;-71
2022/03/05 06:11:34;;;;;;;13.75;8.48;;;-0.50;89.50;;;;;;6123210;23;95576;-71
2022/03/05 06:14:01;;;;;;;14.20;8.57;;;-0.50;89.60;;;;;;6123807;23;92833;-72
2022/03/05 06:16:27;;;;;;;12.20;7.75;;;-0.50;89.60;;;;;;6121270;23;102878;-72
2022/03/05 06:18:54;;;;;;;12.27;7.70;;;-0.50;89.60;;;;;;6123715;23;92448;-71
2022/03/05 06:21:21;;;;;;;11.18;7.90;;;-0.50;89.70;;;;;;6125231;23;93217;-71
2022/03/05 06:23:48;;;;;;;12.77;7.55;;;-0.50;89.80;;;;;;6123343;23;92846;-68
2022/03/05 06:26:15;;;;;;;13.85;8.77;;;-0.50;89.90;;;;;;6098786;23;92368;-68
2022/03/05 06:28:42;;;;;;;13.20;8.00;;;-0.40;90.00;;;;;;6123232;23;92448;-68
2022/03/05 06:31:09;;;;;;;12.57;8.00;;;-0.30;90.00;;;;;;6124931;22;93161;-68
2022/03/05 06:33:36;;;;;;;11.88;7.50;;;-0.10;89.80;;;;;;6125090;22;92953;-68
2022/03/05 06:36:04;;;;;;;10.27;6.93;;;0.10;89.30;;;;;;6123348;23;93110;-68
2022/03/05 06:38:31;;;;;;;9.98;6.57;;;0.30;88.70;;;;;;6147604;22;98149;-68
2022/03/05 06:40:58;;;;;;;9.93;6.47;;;0.40;87.90;;;;;;6121508;23;98166;-68
2022/03/05 06:43:24;;;;;;;9.50;6.80;;;0.40;87.40;;;;;;6123029;23;95372;-68
2022/03/05 06:45:52;;;;;;;13.20;7.53;;;0.50;87.00;;;;;;6123160;23;92362;-68
2022/03/05 06:48:19;;;;;;;10.13;6.43;;;0.60;86.80;;;;;;6124439;22;92290;-68
2022/03/05 06:50:46;;;;;;;11.77;7.38;;;0.60;86.50;;;;;;6124509;22;93079;-68
2022/03/05 06:53:13;;;;;;;10.13;7.03;;;0.70;86.20;;;;;;6124632;22;92879;-68
2022/03/05 06:55:40;;;;;;;9.30;6.90;;;0.70;85.90;;;;;;6073744;23;92475;-68
2022/03/05 06:58:06;;;;;;;11.25;6.78;;;0.80;85.90;;;;;;6125182;23;91602;-68
2022/03/05 07:00:33;;;;;;;11.50;7.05;;;0.80;85.60;;;;;;6122797;23;92489;-68
2022/03/05 07:03:02;;;;;;;10.05;7.07;;;0.90;85.60;;;;;;6098128;23;94129;-68
2022/03/05 07:05:29;;;;;;;9.02;6.90;;;0.90;85.50;;;;;;6122761;22;99465;-68
2022/03/05 07:07:56;;;;;;;10.45;6.63;;;1.00;85.40;;;;;;6123735;23;92516;-68
2022/03/05 07:10:23;;;;;;;10.35;6.78;;;1.20;85.10;;;;;;6125913;22;93234;-68
2022/03/05 07:12:50;;;;;;;8.20;6.93;;;1.20;84.60;;;;;;6125585;22;93096;-70
2022/03/05 07:15:17;;;;;;;10.60;8.43;;;1.40;84.50;;;;;;6126156;22;92382;-68
2022/03/05 07:17:49;;;;;;;13.60;8.77;;;1.60;84.10;;;;;;6125757;22;92423;-68
2022/03/05 07:20:16;;;;;;;10.55;8.10;;;1.90;84.20;;;;;;6125850;23;93154;-68
2022/03/05 07:22:43;;;;;;;9.07;7.53;;;2.10;83.30;;;;;;6124448;23;92662;-68
2022/03/05 07:25:11;;;;;;;9.00;7.47;;;2.50;81.80;;;;;;6126088;22;92434;-68
2022/03/05 07:27:42;;;;;;;6.78;6.15;;;2.80;81.00;;;;;;6123782;23;93523;-71
2022/03/05 07:30:10;;;;;;;8.98;6.72;;;3.10;79.40;;;;;;6124234;22;94859;-68
2022/03/05 07:32:37;;;;;;;10.02;7.15;;;3.20;78.70;;;;;;6125485;22;95247;-69
2022/03/05 07:35:05;;;;;;;9.73;7.20;;;3.20;78.10;;;;;;6099639;23;92450;-72
2022/03/05 07:37:32;;;;;;;8.65;6.60;;;3.30;78.20;;;;;;6125933;22;92381;-72
2022/03/05 07:39:59;;;;;;;9.40;7.70;;;3.20;78.40;;;;;;6124198;23;93155;-73
2022/03/05 07:42:26;;;;;;;8.73;6.60;;;3.20;78.20;;;;;;6125591;22;106213;-72
2022/03/05 07:44:54;;;;;;;9.50;7.93;;;3.10;78.30;;;;;;6099481;23;92388;-68
2022/03/05 07:47:21;;;;;;;11.50;7.72;;;3.00;78.60;;;;;;6126215;22;91595;-68
2022/03/05 07:49:48;;;;;;;11.35;8.00;;;3.10;78.90;;;;;;6125037;22;93590;-68
2022/03/05 07:52:15;;;;;;;10.10;8.48;;;3.10;78.80;;;;;;6123937;23;94242;-68
2022/03/05 07:54:42;;;;;;;11.80;8.02;;;3.20;79.30;;;;;;6122256;23;94805;-69
2022/03/05 07:57:09;;;;;;;10.20;7.30;;;3.30;78.70;;;;;;6124070;23;92463;-69
2022/03/05 07:59:37;;;;;;;11.30;8.73;;;3.40;78.90;;;;;;6124732;23;112052;-69
2022/03/05 08:02:05;;;;;;;11.50;8.57;;;3.50;78.90;;;;;;6124223;23;93022;-73
2022/03/05 08:04:32;;;;;;;12.10;8.55;;;3.70;78.30;;;;;;6126068;23;92317;-73
2022/03/05 08:07:19;;;;;;;12.52;10.30;;;3.90;78.00;;;;;;6126108;22;92348;-73
2022/03/05 08:09:46;;;;;;;12.88;10.88;;;4.10;77.30;;;;;;6124722;22;93161;-73
2022/03/05 08:12:13;;;;;;;13.40;12.00;;;4.40;76.20;;;;;;6125387;22;92994;-73
2022/03/05 08:14:42;;;;;;;14.85;13.45;;;4.70;75.30;;;;;;6123783;23;92463;-73
2022/03/05 08:17:09;;;;;;;16.48;15.10;;;5.00;74.50;;;;;;6125046;22;92375;-69
2022/03/05 08:19:36;;;;;;;16.13;14.75;;;5.50;74.10;;;;;;6120846;23;105890;-69
2022/03/05 08:22:18;;;;;;;15.60;14.20;;;5.80;72.80;;;;;;6123254;23;98010;-69
2022/03/05 08:24:45;;;;;;;15.65;14.35;;;6.20;71.40;;;;;;6123294;23;92519;-69
2022/03/05 08:27:12;;;;;;;16.05;14.63;;;6.40;71.00;;;;;;6125232;22;92370;-69
2022/03/05 08:29:39;;;;;;;11.57;9.02;;;6.60;70.10;;;;;;6124818;22;93080;-69
2022/03/05 08:32:07;;;;;;;14.10;9.68;;;6.70;69.20;;;;;;6123481;23;95713;-69
2022/03/05 08:34:34;;;;;;;12.27;9.30;;;6.60;69.50;;;;;;6123877;23;92382;-69
2022/03/05 08:37:01;;;;;;;12.85;9.10;;;6.50;69.20;;;;;;6125758;22;91640;-69
2022/03/05 08:39:28;;;;;;;13.43;9.38;;;6.30;69.30;;;;;;6125557;22;93102;-73
2022/03/05 08:41:56;;;;;;;14.70;9.57;;;6.10;70.10;;;;;;6123709;23;92979;-73
2022/03/05 08:44:22;;;;;;;14.27;9.43;;;5.80;70.40;;;;;;6122044;23;99673;-73
2022/03/05 08:46:49;;;;;;;11.80;8.60;;;5.60;70.70;;;;;;6125387;22;92393;-73
2022/03/05 08:49:16;;;;;;;13.88;9.52;;;5.30;71.30;;;;;;6124964;22;93328;-73
2022/03/05 08:51:44;;;;;;;10.77;7.80;;;5.10;72.20;;;;;;6125379;23;93000;-74
2022/03/05 08:54:11;;;;;;;14.88;10.52;;;4.90;73.20;;;;;;6125802;22;92476;-73
2022/03/05 08:56:38;;;;;;;15.45;9.68;;;4.80;74.10;;;;;;6123458;23;92464;-73
2022/03/05 08:59:05;;;;;;;17.65;9.85;;;4.70;74.70;;;;;;6125222;22;93140;-73
2022/03/05 09:01:32;;;;;;;12.90;8.82;;;4.60;74.80;;;;;;6124523;23;92976;-73
2022/03/05 09:03:59;;;;;;;17.75;10.95;;;4.50;75.40;;;;;;6125412;22;92375;-73
2022/03/05 09:06:26;;;;;;;16.35;10.85;;;4.50;75.10;;;;;;6123453;23;92446;-73
2022/03/05 09:08:53;;;;;;;12.98;8.57;;;4.40;75.80;;;;;;6121565;23;95602;-73
2022/03/05 09:11:20;;;;;;;16.02;9.82;;;4.30;76.30;;;;;;6123505;23;96871;-73
2022/03/05 09:13:47;;;;;;;16.88;11.38;;;4.30;76.30;;;;;;6124007;23;92553;-73
2022/03/05 09:16:15;;;;;;;17.45;11.27;;;4.20;76.00;;;;;;6122765;23;97883;-73
2022/03/05 09:18:42;;;;;;;18.48;11.15;;;4.20;76.80;;;;;;6123195;23;93272;-73
2022/03/05 09:21:09;;;;;;;20.67;9.70;;;4.30;76.60;;;;;;6124335;22;92854;-73
2022/03/05 09:23:36;;;;;;;16.85;9.52;;;4.30;76.40;;;;;;6125499;22;92323;-73
2022/03/05 09:26:03;;;;;;;18.90;11.10;;;4.30;76.60;;;;;;6099428;23;91725;-73
2022/03/05 09:28:31;;;;;;;18.10;11.18;;;4.30;76.70;;;;;;6124809;22;93281;-74
2022/03/05 09:31:04;;;;;;;13.85;10.57;;;4.30;76.10;;;;;;6124202;22;93064;-73
2022/03/05 09:33:31;;;;;;;16.33;9.85;;;4.30;76.20;;;;;;6121276;23;95301;-73
2022/03/05 09:35:59;;;;;;;18.02;9.48;;;4.30;76.60;;;;;;6123382;23;92423;-73
2022/03/05 09:38:26;;;;;;;28.33;12.05;;;4.40;77.10;;;;;;6098620;23;95779;-74
2022/03/05 09:40:53;;;;;;;18.83;11.68;;;4.40;76.30;;;;;;6097836;23;95519;-73
2022/03/05 09:43:21;;;;;;;16.60;10.95;;;4.50;76.50;;;;;;6124668;23;92378;-73
2022/03/05 09:45:49;;;;;;;16.83;11.45;;;4.60;76.30;;;;;;6122932;23;92415;-73
2022/03/05 09:48:17;;;;;;;16.17;10.35;;;4.60;76.30;;;;;;6122274;23;93064;-73
2022/03/05 09:50:45;;;;;;;20.63;12.43;;;4.70;76.10;;;;;;6123241;23;95670;-73
2022/03/05 09:53:12;;;;;;;19.38;12.52;;;4.80;76.10;;;;;;6124546;23;92893;-73
2022/03/05 09:55:40;;;;;;;16.35;10.73;;;4.80;75.60;;;;;;6124681;23;92401;-73
2022/03/05 09:58:26;;;;;;;17.20;10.63;;;4.90;75.50;;;;;;6100615;23;98477;-73
2022/03/05 10:00:54;;;;;;;20.35;11.65;;;5.00;75.50;;;;;;6122512;23;98176;-73
2022/03/05 10:03:22;;;;;;;20.65;10.52;;;5.10;74.80;;;;;;6123038;23;92507;-74
2022/03/05 10:05:49;;;;;;;15.32;10.40;;;5.20;74.90;;;;;;6098332;23;92467;-73
2022/03/05 10:08:20;;;;;;;17.90;10.00;;;5.30;74.60;;;;;;6124182;23;93174;-73
2022/03/05 10:10:52;;;;;;;;;;;5.30;74.40;;;;;;6099617;23;94212;-74
2022/03/05 10:13:23;;;;;;;18.63;11.20;;;5.40;74.00;;;;;;6124677;23;92493;-74
2022/03/05 10:15:53;;;;;;;16.15;10.55;;;5.50;73.70;;;;;;6125023;22;91555;-74
2022/03/05 10:18:33;;;;;;;18.35;10.85;;;5.60;73.50;;;;;;6097505;23;95698;-74
2022/03/05 10:21:02;;;;;;;19.63;11.77;;;5.70;73.40;;;;;;6123979;22;92919;-74
2022/03/05 10:23:33;;;;;;;17.83;11.35;;;5.80;72.70;;;;;;6120992;23;94898;-74
2022/03/05 10:26:08;;;;;;;22.17;12.38;;;5.70;72.00;;;;;;6122549;23;92398;-74
2022/03/05 10:28:40;;;;;;;20.58;12.25;;;5.80;72.20;;;;;;6124086;23;92336;-74
2022/03/05 10:31:08;;;;;;;19.33;11.98;;;5.80;72.00;;;;;;6122167;23;95740;-74
2022/03/05 10:33:42;;;;;;;19.40;11.43;;;5.80;72.20;;;;;;6124184;23;92361;-74
2022/03/05 10:36:19;;;;;;;;;;;5.90;72.40;;;;;;6124616;22;92301;-74
2022/03/05 10:38:58;;;;;;;17.23;10.38;;;5.90;72.30;;;;;;6124536;23;95517;-74
2022/03/05 10:41:38;;;;;;;20.70;12.57;;;6.10;73.00;;;;;;6124496;23;93089;-74
2022/03/05 10:44:07;;;;;;;21.73;12.15;;;6.10;71.00;;;;;;6099035;23;92392;-75
2022/03/05 10:46:48;;;;;;;22.23;12.85;;;6.20;71.20;;;;;;6125552;23;92399;-74
2022/03/05 10:49:18;;;;;;;20.48;12.43;;;6.20;70.50;;;;;;6123204;22;95558;-75
2022/03/05 10:51:50;;;;;;;19.58;11.57;;;6.20;70.00;;;;;;6123412;23;97119;-70
2022/03/05 10:54:32;;;;;;;22.15;14.02;;;6.30;70.60;;;;;;6125278;22;92286;-74
2022/03/05 10:57:16;;;;;;;21.80;13.70;;;6.30;69.50;;;;;;6125426;22;92392;-74
2022/03/05 10:59:44;;;;;;;;;;;6.30;69.40;;;;;;6125874;22;93241;-76
2022/03/05 11:02:15;;;;;;;20.35;14.10;;;6.20;69.50;;;;;;6125229;23;94957;-75
2022/03/05 11:04:43;;;;;;;21.58;13.70;;;6.20;70.10;;;;;;6099540;23;92590;-75
2022/03/05 11:07:12;;;;;;;24.38;12.48;;;6.30;70.00;;;;;;6075205;23;91704;-71
2022/03/05 11:09:42;;;;;;;19.45;12.68;;;6.40;69.80;;;;;;6125175;22;92416;-71
2022/03/05 11:12:17;;;;;;;20.88;12.98;;;6.50;69.30;;;;;;6124915;22;92981;-71
2022/03/05 11:14:49;;;;;;;18.95;12.73;;;6.50;69.00;;;;;;6123887;22;94679;-70
2022/03/05 11:17:17;;;;;;;22.88;13.48;;;6.50;69.00;;;;;;6123262;23;92431;-70
2022/03/05 11:19:44;;;;;;;21.00;12.70;;;6.60;68.80;;;;;;6125212;22;93184;-70
2022/03/05 11:22:13;;;;;;;23.88;13.18;;;6.60;69.30;;;;;;6124820;22;93042;-71
2022/03/05 11:24:42;;;;;;;20.88;13.60;;;6.60;68.60;;;;;;6125320;23;92843;-71
2022/03/05 11:27:14;;;;;;;20.85;12.02;;;6.70;68.60;;;;;;6098527;23;92554;-75
2022/03/05 11:29:59;;;;;;;19.15;11.70;;;6.70;68.40;;;;;;6123645;23;95796;-73
2022/03/05 11:32:29;;;;;;;22.00;13.10;;;6.70;68.40;;;;;;6125333;22;92838;-75
2022/03/05 11:34:56;;;;;;;20.00;11.63;;;6.80;68.90;;;;;;6123909;23;92407;-71
2022/03/05 11:37:34;;;;;;;20.45;12.15;;;6.90;67.90;;;;;;6123412;23;92429;-75
2022/03/05 11:40:04;;;;;;;21.70;13.43;;;7.00;68.20;;;;;;6123726;22;95510;-71
2022/03/05 11:42:38;;;;;;;21.73;13.88;;;7.10;68.10;;;;;;6123408;23;95356;-71
2022/03/05 11:45:24;;;;;;;;;;;7.10;67.40;;;;;;6125848;22;92290;-75
2022/03/05 11:47:51;;;;;;;19.83;11.25;;;7.10;67.60;;;;;;6127405;22;92398;-75
2022/03/05 11:50:19;;;;;;;18.70;12.52;;;7.20;67.30;;;;;;6123041;23;94946;-75
2022/03/05 11:52:56;;;;;;;20.48;12.68;;;7.20;67.20;;;;;;6122909;23;95658;-75
2022/03/05 11:55:24;;;;;;;23.02;13.18;;;7.30;66.60;;;;;;6124895;22;93197;-71
2022/03/05 11:57:51;;;;;;;21.35;13.80;;;7.40;66.80;;;;;;6125163;22;91657;-70
2022/03/05 12:00:26;;;;;;;20.23;12.55;;;7.40;66.30;;;;;;6124718;22;93042;-71
2022/03/05 12:02:54;;;;;;;20.67;12.85;;;7.40;65.70;;;;;;6124927;23;93114;-71
2022/03/05 12:05:41;;;;;;;17.65;10.10;;;7.40;65.90;;;;;;6123369;22;94896;-71
2022/03/05 12:08:32;;;;;;;19.02;12.38;;;7.40;66.30;;;;;;6123567;23;92480;-71
2022/03/05 12:11:21;;;;;;;19.02;11.90;;;7.30;66.60;;;;;;6124460;23;93252;-71
2022/03/05 12:13:57;;;;;;;19.98;12.10;;;7.50;66.10;;;;;;6123260;23;95748;-75
2022/03/05 12:16:26;;;;;;;20.98;14.15;;;7.60;65.90;;;;;;6124707;22;92304;-71
2022/03/05 12:18:56;;;;;;;21.10;13.82;;;7.60;66.10;;;;;;6125072;22;92387;-71
2022/03/05 12:21:30;;;;;;;20.42;13.23;;;7.70;66.10;;;;;;6123298;23;93183;-75
2022/03/05 12:24:09;;;;;;;20.42;13.25;;;7.70;65.80;;;;;;6123826;23;95799;-70
2022/03/05 12:26:40;;;;;;;24.30;13.27;;;7.80;65.60;;;;;;6124841;22;92307;-71
2022/03/05 12:29:09;;;;;;;20.80;13.23;;;7.80;65.30;;;;;;6124944;22;92469;-75
2022/03/05 12:31:44;;;;;;;20.95;12.75;;;7.90;65.50;;;;;;6095646;23;114431;-75
2022/03/05 12:34:12;;;;;;;18.40;12.20;;;8.00;65.50;;;;;;6124790;22;95280;-75
2022/03/05 12:36:46;;;;;;;17.65;11.48;;;7.90;64.70;;;;;;6123236;23;92426;-75
2022/03/05 12:39:14;;;;;;;18.83;11.05;;;7.90;64.30;;;;;;6125102;22;92565;-71
2022/03/05 12:41:43;;;;;;;19.92;11.98;;;7.90;64.60;;;;;;6122891;23;93237;-75
2022/03/05 12:44:11;;;;;;;20.75;12.32;;;8.00;65.40;;;;;;6124837;22;92845;-75
2022/03/05 12:46:38;;;;;;;21.45;13.63;;;8.00;64.60;;;;;;6122826;23;92505;-75
2022/03/05 12:49:06;;;;;;;21.30;12.85;;;8.00;64.50;;;;;;6124680;23;91639;-75
2022/03/05 12:51:34;;;;;;;21.77;13.80;;;8.10;64.60;;;;;;6123064;23;93150;-75
2022/03/05 12:54:04;;;;;;;21.80;13.40;;;8.10;64.80;;;;;;6124970;23;92984;-75